This is the latest recevied weather packets stored in our database for station/object OK1VCF-6. If no packets are shown the sender has not sent any weather packets the latest 10 day(s).
| Time | Temp. | Humidity | Pressure | Rain* | Wind** | Luminosity | Snow |
|---|---|---|---|---|---|---|---|
| 1788470927 | 15° C | 90% | 1020.4 hPa | - | - | - | - |
| 1788470026 | 15° C | 90% | 1020.4 hPa | - | - | - | - |
| 1788447509 | 17.78° C | 78% | 1021.2 hPa | - | - | - | - |
| 1788430400 | 17.78° C | 80% | 1022 hPa | - | - | - | - |
| 1788428678 | 16.67° C | 82% | 1022.3 hPa | - | - | - | - |
| 1788425046 | 15.56° C | 84% | 1022.2 hPa | - | - | - | - |
| 1788423190 | 14.44° C | 88% | 1022.4 hPa | - | - | - | - |
| 1788422290 | 14.44° C | 86% | 1022.3 hPa | - | - | - | - |
| 1788421390 | 13.89° C | 88% | 1022.2 hPa | - | - | - | - |
| 1788420496 | 13.33° C | 92% | 1022.2 hPa | - | - | - | - |
| 1788418846 | 12.22° C | 92% | 1022.2 hPa | - | - | - | - |
| 1788418687 | 12.22° C | 92% | 1022.2 hPa | - | - | - | - |
| 1788417820 | 12.22° C | 93% | 1022.2 hPa | - | - | - | - |
| 1788416881 | 12.22° C | 93% | 1022.1 hPa | - | - | - | - |
| 1788410575 | 10° C | 94% | 1021.9 hPa | - | - | - | - |
| 1788377272 | 13.33° C | 92% | 1022.2 hPa | - | - | - | - |
| 1788364614 | 18.89° C | 76% | 1021.8 hPa | - | - | - | - |
| 1788362813 | 18.89° C | 72% | 1022.2 hPa | - | - | - | - |
| 1788358312 | 19.44° C | 72% | 1022.6 hPa | - | - | - | - |
| 1788353814 | 20° C | 71% | 1023 hPa | - | - | - | - |
| 1788348401 | 17.78° C | 79% | 1023.2 hPa | - | - | - | - |
| 1788346605 | 17.78° C | 77% | 1023.4 hPa | - | - | - | - |
| 1788343069 | 17.78° C | 78% | 1023.5 hPa | - | - | - | - |
| 1788342997 | 17.78° C | 78% | 1023.5 hPa | - | - | - | - |
| 1788340295 | 17.78° C | 78% | 1023.6 hPa | - | - | - | - |
* Rain since midnight (hover to see other rain measurements)
** Current wind speed in m/s (hover to see current wind gust speed)